Aeroporto :
LOGIN :

Iscrizione | Disclaimer

   EN    FR    IT 

 










Sommario :    VFR   VFR Marginale   IFR   IFR Intensivo   IFR Molto Intensivo
Visibilità : 
Base nubi : 
>= 8 km
>= 3000ft
5 / 8 km
1000 / 3000 ft
1500m / 5 km
500 / 1000 ft
800 / 1500m
200 / 500 ft
< 800m
< 200 ft
Simboli :   Temporali  Nebbia  Neve Forte  Precipitazioni Forti  Vento > 20 kt
SIGMETs :   Varie  Temporali  Ghiacco  Turbolenza  Onda orograficha  Ceneri Vulcaniche






- Altitudine del aeroporto : 699 ft
- Codice IATA : PAD


EDLP - Paderborn Lippstadt

ULTIMO METAR :
  • 131550Z 25011KT 230V290 9999 SCT043 19/09 Q1013

METARs OBSOLETI :
  • 131520Z 26008KT 230V310 9999 SCT043 20/09 Q1013
  • 131450Z 25009KT 220V290 9999 FEW043 19/09 Q1013
  • 131420Z 25010KT 220V300 9999 SCT043 20/11 Q1013
  • 131350Z 25010KT 220V310 9999 BKN040 18/09 Q1013
  • 131320Z 26007KT 220V310 9999 BKN038 OVC044 18/09 Q1013
  • 131250Z 24013KT 9999 BKN036 18/09 Q1013
  • 131220Z 24011KT 220V280 9999 BKN036 17/09 Q1013
  • 131150Z 23013KT 9999 BKN034 BKN039 17/09 Q1012
  • 131120Z 24012KT 200V260 9999 BKN033 BKN039 17/09 Q1012

TAF TAF EDLP
Valido dal 13 a 12 ore il 14 a 12 ore UTC


131100Z 1312/1412 24013KT 9999 BKN030
PROB30
TEMPO 1312/1316 24015G25KT
BECMG 1315/1318 25007KT
BECMG 1319/1322 18005KT
BECMG 1406/1409 24007KT



MetMap, La meteo Aeronautica in un colpo d'occhio ! - Copyright ORBIFLY Dicembre 2007 - Disclaimer

ORBIFLY MET'MAP TEAM :

Programmazione e sviluppo : Alexandra Zaïnal
Concezione : Baudouin d'Aumeries
Supporto tecnico e logistico : Manuel Goepfert
Aiuto : Marc-Olivier Méhu
Aiuto per la traduzione : Arnaldo La Scala




FONTI E CREDITI :

   NOAA